sensor_id;sensor_type;location;lat;lon;timestamp;P1;durP1;ratioP1;P2;durP2;ratioP2
27223;SDS011;14965;50.660;13.226;2023-12-29T00:00:30;1.60;;;1.20;;
27223;SDS011;14965;50.660;13.226;2023-12-29T00:02:57;1.20;;;1.10;;
27223;SDS011;14965;50.660;13.226;2023-12-29T00:05:23;2.35;;;1.40;;
27223;SDS011;14965;50.660;13.226;2023-12-29T00:07:49;2.88;;;1.20;;
27223;SDS011;14965;50.660;13.226;2023-12-29T00:10:15;1.77;;;1.50;;
27223;SDS011;14965;50.660;13.226;2023-12-29T00:12:41;1.67;;;1.20;;
27223;SDS011;14965;50.660;13.226;2023-12-29T00:15:08;2.28;;;1.45;;
27223;SDS011;14965;50.660;13.226;2023-12-29T00:17:34;1.42;;;1.33;;
27223;SDS011;14965;50.660;13.226;2023-12-29T00:20:02;1.23;;;1.13;;
27223;SDS011;14965;50.660;13.226;2023-12-29T00:22:29;2.03;;;1.40;;
27223;SDS011;14965;50.660;13.226;2023-12-29T00:24:55;2.28;;;1.30;;
27223;SDS011;14965;50.660;13.226;2023-12-29T00:27:21;1.63;;;1.45;;
27223;SDS011;14965;50.660;13.226;2023-12-29T00:29:47;2.22;;;1.40;;
27223;SDS011;14965;50.660;13.226;2023-12-29T00:32:13;1.55;;;1.38;;
27223;SDS011;14965;50.660;13.226;2023-12-29T00:34:38;2.20;;;1.52;;
27223;SDS011;14965;50.660;13.226;2023-12-29T00:37:06;3.08;;;1.52;;
27223;SDS011;14965;50.660;13.226;2023-12-29T00:39:32;3.22;;;1.92;;
27223;SDS011;14965;50.660;13.226;2023-12-29T00:41:57;4.10;;;2.25;;
27223;SDS011;14965;50.660;13.226;2023-12-29T00:44:24;2.65;;;1.33;;
27223;SDS011;14965;50.660;13.226;2023-12-29T00:46:49;2.55;;;1.40;;
27223;SDS011;14965;50.660;13.226;2023-12-29T00:49:16;3.10;;;1.50;;
27223;SDS011;14965;50.660;13.226;2023-12-29T00:51:43;2.03;;;1.30;;
27223;SDS011;14965;50.660;13.226;2023-12-29T00:54:10;1.75;;;1.10;;
27223;SDS011;14965;50.660;13.226;2023-12-29T00:56:36;3.95;;;1.10;;
27223;SDS011;14965;50.660;13.226;2023-12-29T00:59:02;2.38;;;1.00;;
27223;SDS011;14965;50.660;13.226;2023-12-29T01:01:32;1.13;;;1.00;;
27223;SDS011;14965;50.660;13.226;2023-12-29T01:03:59;1.60;;;1.00;;
27223;SDS011;14965;50.660;13.226;2023-12-29T01:06:25;1.13;;;0.88;;
27223;SDS011;14965;50.660;13.226;2023-12-29T01:08:51;1.38;;;1.00;;
27223;SDS011;14965;50.660;13.226;2023-12-29T01:11:18;0.75;;;0.75;;
27223;SDS011;14965;50.660;13.226;2023-12-29T01:13:44;1.17;;;0.63;;
27223;SDS011;14965;50.660;13.226;2023-12-29T01:16:10;1.13;;;0.70;;
27223;SDS011;14965;50.660;13.226;2023-12-29T01:18:36;2.95;;;1.00;;
27223;SDS011;14965;50.660;13.226;2023-12-29T01:21:02;1.50;;;0.80;;
27223;SDS011;14965;50.660;13.226;2023-12-29T01:23:29;0.70;;;0.70;;
27223;SDS011;14965;50.660;13.226;2023-12-29T01:25:55;1.60;;;0.68;;
27223;SDS011;14965;50.660;13.226;2023-12-29T01:28:23;2.00;;;1.00;;
27223;SDS011;14965;50.660;13.226;2023-12-29T01:30:49;1.60;;;0.80;;
27223;SDS011;14965;50.660;13.226;2023-12-29T01:33:15;0.75;;;0.75;;
27223;SDS011;14965;50.660;13.226;2023-12-29T01:35:41;0.95;;;0.75;;
27223;SDS011;14965;50.660;13.226;2023-12-29T01:38:07;1.05;;;0.85;;
27223;SDS011;14965;50.660;13.226;2023-12-29T01:40:41;1.75;;;0.88;;
27223;SDS011;14965;50.660;13.226;2023-12-29T01:43:09;1.00;;;0.73;;
27223;SDS011;14965;50.660;13.226;2023-12-29T01:45:36;1.40;;;1.02;;
27223;SDS011;14965;50.660;13.226;2023-12-29T01:48:02;1.13;;;0.60;;
27223;SDS011;14965;50.660;13.226;2023-12-29T01:50:29;0.85;;;0.85;;
27223;SDS011;14965;50.660;13.226;2023-12-29T01:52:56;0.75;;;0.70;;
27223;SDS011;14965;50.660;13.226;2023-12-29T01:55:23;0.85;;;0.85;;
27223;SDS011;14965;50.660;13.226;2023-12-29T01:57:51;1.03;;;0.80;;
27223;SDS011;14965;50.660;13.226;2023-12-29T02:00:19;1.27;;;0.67;;
27223;SDS011;14965;50.660;13.226;2023-12-29T02:02:47;1.42;;;0.60;;
27223;SDS011;14965;50.660;13.226;2023-12-29T02:05:15;0.77;;;0.60;;
27223;SDS011;14965;50.660;13.226;2023-12-29T02:07:45;0.93;;;0.70;;
27223;SDS011;14965;50.660;13.226;2023-12-29T02:10:14;0.70;;;0.70;;
27223;SDS011;14965;50.660;13.226;2023-12-29T02:12:41;1.02;;;0.70;;
27223;SDS011;14965;50.660;13.226;2023-12-29T02:15:07;1.05;;;0.68;;
27223;SDS011;14965;50.660;13.226;2023-12-29T02:17:35;1.02;;;0.75;;
27223;SDS011;14965;50.660;13.226;2023-12-29T02:20:08;1.33;;;0.80;;
27223;SDS011;14965;50.660;13.226;2023-12-29T02:22:35;1.08;;;0.90;;
27223;SDS011;14965;50.660;13.226;2023-12-29T02:25:03;0.68;;;0.63;;
27223;SDS011;14965;50.660;13.226;2023-12-29T02:27:32;0.98;;;0.88;;
27223;SDS011;14965;50.660;13.226;2023-12-29T02:30:09;1.00;;;0.73;;
27223;SDS011;14965;50.660;13.226;2023-12-29T02:32:41;0.70;;;0.70;;
27223;SDS011;14965;50.660;13.226;2023-12-29T02:35:13;1.58;;;0.90;;
27223;SDS011;14965;50.660;13.226;2023-12-29T02:37:43;0.90;;;0.80;;
27223;SDS011;14965;50.660;13.226;2023-12-29T02:40:11;1.10;;;0.90;;
27223;SDS011;14965;50.660;13.226;2023-12-29T02:42:39;1.77;;;1.02;;
27223;SDS011;14965;50.660;13.226;2023-12-29T02:45:11;2.05;;;1.35;;
27223;SDS011;14965;50.660;13.226;2023-12-29T02:47:37;1.40;;;1.00;;
27223;SDS011;14965;50.660;13.226;2023-12-29T02:50:03;1.80;;;1.00;;
27223;SDS011;14965;50.660;13.226;2023-12-29T02:52:30;3.15;;;1.65;;
27223;SDS011;14965;50.660;13.226;2023-12-29T02:54:55;2.60;;;1.60;;
27223;SDS011;14965;50.660;13.226;2023-12-29T02:57:23;1.20;;;1.10;;
27223;SDS011;14965;50.660;13.226;2023-12-29T02:59:49;1.10;;;1.00;;
27223;SDS011;14965;50.660;13.226;2023-12-29T03:02:15;1.23;;;1.00;;
27223;SDS011;14965;50.660;13.226;2023-12-29T03:04:41;1.92;;;1.08;;
27223;SDS011;14965;50.660;13.226;2023-12-29T03:07:07;1.13;;;0.88;;
27223;SDS011;14965;50.660;13.226;2023-12-29T03:09:32;0.90;;;0.90;;
27223;SDS011;14965;50.660;13.226;2023-12-29T03:11:58;2.13;;;0.88;;
27223;SDS011;14965;50.660;13.226;2023-12-29T03:14:26;1.20;;;1.08;;
27223;SDS011;14965;50.660;13.226;2023-12-29T03:16:52;2.20;;;1.10;;
27223;SDS011;14965;50.660;13.226;2023-12-29T03:19:18;1.42;;;1.30;;
27223;SDS011;14965;50.660;13.226;2023-12-29T03:21:44;1.33;;;1.13;;
27223;SDS011;14965;50.660;13.226;2023-12-29T03:24:10;1.30;;;1.20;;
27223;SDS011;14965;50.660;13.226;2023-12-29T03:26:35;1.75;;;1.40;;
27223;SDS011;14965;50.660;13.226;2023-12-29T03:29:01;1.83;;;1.10;;
27223;SDS011;14965;50.660;13.226;2023-12-29T03:31:29;2.90;;;1.27;;
27223;SDS011;14965;50.660;13.226;2023-12-29T03:33:55;1.88;;;1.20;;
27223;SDS011;14965;50.660;13.226;2023-12-29T03:36:21;1.58;;;1.40;;
27223;SDS011;14965;50.660;13.226;2023-12-29T03:38:47;4.40;;;1.65;;
27223;SDS011;14965;50.660;13.226;2023-12-29T03:41:13;2.10;;;1.50;;
27223;SDS011;14965;50.660;13.226;2023-12-29T03:43:39;3.08;;;1.70;;
27223;SDS011;14965;50.660;13.226;2023-12-29T03:46:14;4.60;;;1.63;;
27223;SDS011;14965;50.660;13.226;2023-12-29T03:48:43;4.65;;;1.42;;
27223;SDS011;14965;50.660;13.226;2023-12-29T03:51:09;2.42;;;1.63;;
27223;SDS011;14965;50.660;13.226;2023-12-29T03:53:35;2.70;;;1.60;;
27223;SDS011;14965;50.660;13.226;2023-12-29T03:56:03;4.10;;;1.88;;
27223;SDS011;14965;50.660;13.226;2023-12-29T03:58:29;2.70;;;1.50;;
27223;SDS011;14965;50.660;13.226;2023-12-29T04:00:55;3.60;;;1.70;;
27223;SDS011;14965;50.660;13.226;2023-12-29T04:03:21;2.55;;;2.03;;
27223;SDS011;14965;50.660;13.226;2023-12-29T04:05:49;3.03;;;1.90;;
27223;SDS011;14965;50.660;13.226;2023-12-29T04:08:14;2.03;;;1.50;;
27223;SDS011;14965;50.660;13.226;2023-12-29T04:10:40;4.10;;;1.95;;
27223;SDS011;14965;50.660;13.226;2023-12-29T04:13:07;1.90;;;1.55;;
27223;SDS011;14965;50.660;13.226;2023-12-29T04:15:32;2.20;;;1.80;;
27223;SDS011;14965;50.660;13.226;2023-12-29T04:17:59;1.95;;;1.67;;
27223;SDS011;14965;50.660;13.226;2023-12-29T04:20:25;2.97;;;1.85;;
27223;SDS011;14965;50.660;13.226;2023-12-29T04:22:52;3.13;;;2.05;;
27223;SDS011;14965;50.660;13.226;2023-12-29T04:25:18;2.67;;;1.88;;
27223;SDS011;14965;50.660;13.226;2023-12-29T04:27:44;3.85;;;2.13;;
27223;SDS011;14965;50.660;13.226;2023-12-29T04:30:10;2.10;;;1.90;;
27223;SDS011;14965;50.660;13.226;2023-12-29T04:32:36;2.80;;;1.95;;
27223;SDS011;14965;50.660;13.226;2023-12-29T04:35:03;3.08;;;1.90;;
27223;SDS011;14965;50.660;13.226;2023-12-29T04:37:30;3.25;;;2.28;;
27223;SDS011;14965;50.660;13.226;2023-12-29T04:39:58;6.53;;;2.97;;
27223;SDS011;14965;50.660;13.226;2023-12-29T04:42:24;5.72;;;2.83;;
27223;SDS011;14965;50.660;13.226;2023-12-29T04:44:49;2.95;;;2.10;;
27223;SDS011;14965;50.660;13.226;2023-12-29T04:47:15;2.30;;;1.98;;
27223;SDS011;14965;50.660;13.226;2023-12-29T04:49:41;4.47;;;2.20;;
27223;SDS011;14965;50.660;13.226;2023-12-29T04:52:07;3.28;;;2.00;;
27223;SDS011;14965;50.660;13.226;2023-12-29T04:54:33;3.20;;;2.20;;
27223;SDS011;14965;50.660;13.226;2023-12-29T04:57:01;3.97;;;1.90;;
27223;SDS011;14965;50.660;13.226;2023-12-29T04:59:27;3.47;;;1.83;;
27223;SDS011;14965;50.660;13.226;2023-12-29T05:01:53;2.60;;;1.80;;
27223;SDS011;14965;50.660;13.226;2023-12-29T05:04:19;3.42;;;1.90;;
27223;SDS011;14965;50.660;13.226;2023-12-29T05:06:45;5.32;;;2.00;;
27223;SDS011;14965;50.660;13.226;2023-12-29T05:09:11;3.13;;;2.10;;
27223;SDS011;14965;50.660;13.226;2023-12-29T05:11:37;3.47;;;1.77;;
27223;SDS011;14965;50.660;13.226;2023-12-29T05:14:05;3.22;;;1.80;;
27223;SDS011;14965;50.660;13.226;2023-12-29T05:16:31;3.00;;;1.70;;
27223;SDS011;14965;50.660;13.226;2023-12-29T05:18:57;3.92;;;2.30;;
27223;SDS011;14965;50.660;13.226;2023-12-29T05:21:23;2.80;;;2.00;;
27223;SDS011;14965;50.660;13.226;2023-12-29T05:23:49;2.38;;;1.90;;
27223;SDS011;14965;50.660;13.226;2023-12-29T05:26:15;2.53;;;2.00;;
27223;SDS011;14965;50.660;13.226;2023-12-29T05:28:41;3.08;;;2.08;;
27223;SDS011;14965;50.660;13.226;2023-12-29T05:31:08;3.45;;;1.88;;
27223;SDS011;14965;50.660;13.226;2023-12-29T05:33:34;2.55;;;1.90;;
27223;SDS011;14965;50.660;13.226;2023-12-29T05:36:05;3.45;;;1.83;;
27223;SDS011;14965;50.660;13.226;2023-12-29T05:38:34;3.58;;;1.85;;
27223;SDS011;14965;50.660;13.226;2023-12-29T05:41:01;5.13;;;2.10;;
27223;SDS011;14965;50.660;13.226;2023-12-29T05:43:27;3.85;;;1.75;;
27223;SDS011;14965;50.660;13.226;2023-12-29T05:45:53;5.10;;;2.40;;
27223;SDS011;14965;50.660;13.226;2023-12-29T05:48:21;2.33;;;1.65;;
27223;SDS011;14965;50.660;13.226;2023-12-29T05:50:47;4.68;;;1.70;;
27223;SDS011;14965;50.660;13.226;2023-12-29T05:53:13;3.58;;;2.08;;
27223;SDS011;14965;50.660;13.226;2023-12-29T05:55:38;2.58;;;1.90;;
27223;SDS011;14965;50.660;13.226;2023-12-29T05:58:05;2.28;;;1.88;;
27223;SDS011;14965;50.660;13.226;2023-12-29T06:00:30;4.35;;;2.13;;
27223;SDS011;14965;50.660;13.226;2023-12-29T06:02:56;4.75;;;2.40;;
27223;SDS011;14965;50.660;13.226;2023-12-29T06:05:24;3.97;;;2.22;;
27223;SDS011;14965;50.660;13.226;2023-12-29T06:07:50;3.40;;;2.35;;
27223;SDS011;14965;50.660;13.226;2023-12-29T06:10:16;3.75;;;2.17;;
27223;SDS011;14965;50.660;13.226;2023-12-29T06:12:41;3.00;;;2.20;;
27223;SDS011;14965;50.660;13.226;2023-12-29T06:15:08;3.15;;;2.33;;
27223;SDS011;14965;50.660;13.226;2023-12-29T06:17:34;3.15;;;2.35;;
27223;SDS011;14965;50.660;13.226;2023-12-29T06:20:00;6.63;;;3.40;;
27223;SDS011;14965;50.660;13.226;2023-12-29T06:22:27;3.97;;;2.30;;
27223;SDS011;14965;50.660;13.226;2023-12-29T06:24:53;4.15;;;2.50;;
27223;SDS011;14965;50.660;13.226;2023-12-29T06:27:19;2.97;;;1.98;;
27223;SDS011;14965;50.660;13.226;2023-12-29T06:29:45;3.22;;;2.25;;
27223;SDS011;14965;50.660;13.226;2023-12-29T06:32:11;3.05;;;2.13;;
27223;SDS011;14965;50.660;13.226;2023-12-29T06:34:37;4.85;;;2.78;;
27223;SDS011;14965;50.660;13.226;2023-12-29T06:37:03;4.00;;;3.08;;
27223;SDS011;14965;50.660;13.226;2023-12-29T06:39:31;3.75;;;2.40;;
27223;SDS011;14965;50.660;13.226;2023-12-29T06:41:57;3.30;;;2.60;;
27223;SDS011;14965;50.660;13.226;2023-12-29T06:44:22;7.47;;;2.40;;
27223;SDS011;14965;50.660;13.226;2023-12-29T06:46:48;7.40;;;2.35;;
27223;SDS011;14965;50.660;13.226;2023-12-29T06:49:14;4.60;;;2.42;;
27223;SDS011;14965;50.660;13.226;2023-12-29T06:51:40;2.75;;;2.20;;
27223;SDS011;14965;50.660;13.226;2023-12-29T06:54:06;3.55;;;2.20;;
27223;SDS011;14965;50.660;13.226;2023-12-29T06:56:34;3.50;;;2.15;;
27223;SDS011;14965;50.660;13.226;2023-12-29T06:59:00;3.58;;;2.30;;
27223;SDS011;14965;50.660;13.226;2023-12-29T07:01:26;3.25;;;2.50;;
27223;SDS011;14965;50.660;13.226;2023-12-29T07:03:51;3.35;;;2.20;;
27223;SDS011;14965;50.660;13.226;2023-12-29T07:06:17;3.90;;;2.20;;
27223;SDS011;14965;50.660;13.226;2023-12-29T07:08:43;3.53;;;2.33;;
27223;SDS011;14965;50.660;13.226;2023-12-29T07:11:09;3.45;;;2.30;;
27223;SDS011;14965;50.660;13.226;2023-12-29T07:13:37;4.35;;;2.65;;
27223;SDS011;14965;50.660;13.226;2023-12-29T07:16:04;4.18;;;2.35;;
27223;SDS011;14965;50.660;13.226;2023-12-29T07:18:30;3.65;;;2.47;;
27223;SDS011;14965;50.660;13.226;2023-12-29T07:20:56;3.35;;;2.33;;
27223;SDS011;14965;50.660;13.226;2023-12-29T07:23:22;4.78;;;2.42;;
27223;SDS011;14965;50.660;13.226;2023-12-29T07:25:48;4.45;;;2.40;;
27223;SDS011;14965;50.660;13.226;2023-12-29T07:28:14;6.18;;;2.70;;
27223;SDS011;14965;50.660;13.226;2023-12-29T07:30:41;4.07;;;2.30;;
27223;SDS011;14965;50.660;13.226;2023-12-29T07:33:08;4.30;;;2.65;;
27223;SDS011;14965;50.660;13.226;2023-12-29T07:35:34;7.25;;;2.42;;
27223;SDS011;14965;50.660;13.226;2023-12-29T07:38:00;4.00;;;2.42;;
27223;SDS011;14965;50.660;13.226;2023-12-29T07:40:25;4.50;;;2.63;;
27223;SDS011;14965;50.660;13.226;2023-12-29T07:42:51;4.53;;;2.15;;
27223;SDS011;14965;50.660;13.226;2023-12-29T07:45:17;4.57;;;2.22;;
27223;SDS011;14965;50.660;13.226;2023-12-29T07:47:45;4.90;;;2.38;;
27223;SDS011;14965;50.660;13.226;2023-12-29T07:50:11;3.72;;;2.10;;
27223;SDS011;14965;50.660;13.226;2023-12-29T07:52:37;4.50;;;2.00;;
27223;SDS011;14965;50.660;13.226;2023-12-29T07:55:03;6.43;;;2.33;;
27223;SDS011;14965;50.660;13.226;2023-12-29T07:57:30;4.22;;;2.42;;
27223;SDS011;14965;50.660;13.226;2023-12-29T07:59:56;11.27;;;5.28;;
27223;SDS011;14965;50.660;13.226;2023-12-29T08:02:22;5.82;;;2.83;;
27223;SDS011;14965;50.660;13.226;2023-12-29T08:04:49;4.03;;;2.25;;
27223;SDS011;14965;50.660;13.226;2023-12-29T08:07:15;5.38;;;2.10;;
27223;SDS011;14965;50.660;13.226;2023-12-29T08:09:41;3.50;;;1.83;;
27223;SDS011;14965;50.660;13.226;2023-12-29T08:12:07;4.18;;;2.30;;
27223;SDS011;14965;50.660;13.226;2023-12-29T08:14:33;3.10;;;2.00;;
27223;SDS011;14965;50.660;13.226;2023-12-29T08:16:59;4.32;;;2.15;;
27223;SDS011;14965;50.660;13.226;2023-12-29T08:19:25;4.03;;;2.38;;
27223;SDS011;14965;50.660;13.226;2023-12-29T08:21:52;4.97;;;2.50;;
27223;SDS011;14965;50.660;13.226;2023-12-29T08:24:18;4.22;;;1.90;;
27223;SDS011;14965;50.660;13.226;2023-12-29T08:26:44;3.38;;;2.00;;
27223;SDS011;14965;50.660;13.226;2023-12-29T08:29:12;4.50;;;2.03;;
27223;SDS011;14965;50.660;13.226;2023-12-29T08:31:38;3.72;;;2.35;;
27223;SDS011;14965;50.660;13.226;2023-12-29T08:34:04;4.00;;;2.10;;
27223;SDS011;14965;50.660;13.226;2023-12-29T08:36:30;4.25;;;2.50;;
27223;SDS011;14965;50.660;13.226;2023-12-29T08:38:57;4.57;;;2.40;;
27223;SDS011;14965;50.660;13.226;2023-12-29T08:41:23;5.53;;;2.30;;
27223;SDS011;14965;50.660;13.226;2023-12-29T08:43:49;3.53;;;2.40;;
27223;SDS011;14965;50.660;13.226;2023-12-29T08:46:15;4.60;;;2.28;;
27223;SDS011;14965;50.660;13.226;2023-12-29T08:48:52;4.50;;;2.65;;
27223;SDS011;14965;50.660;13.226;2023-12-29T08:51:27;2.92;;;1.98;;
27223;SDS011;14965;50.660;13.226;2023-12-29T08:53:53;3.15;;;2.20;;
27223;SDS011;14965;50.660;13.226;2023-12-29T08:56:21;4.00;;;2.25;;
27223;SDS011;14965;50.660;13.226;2023-12-29T08:58:47;5.50;;;2.13;;
27223;SDS011;14965;50.660;13.226;2023-12-29T09:01:13;7.55;;;2.38;;
27223;SDS011;14965;50.660;13.226;2023-12-29T09:03:39;6.10;;;2.92;;
27223;SDS011;14965;50.660;13.226;2023-12-29T09:06:05;4.80;;;2.60;;
27223;SDS011;14965;50.660;13.226;2023-12-29T09:08:31;5.28;;;2.30;;
27223;SDS011;14965;50.660;13.226;2023-12-29T09:10:57;4.80;;;2.30;;
27223;SDS011;14965;50.660;13.226;2023-12-29T09:13:24;5.70;;;2.58;;
27223;SDS011;14965;50.660;13.226;2023-12-29T09:15:51;6.22;;;2.60;;
27223;SDS011;14965;50.660;13.226;2023-12-29T09:18:17;6.57;;;2.30;;
27223;SDS011;14965;50.660;13.226;2023-12-29T09:20:43;3.90;;;2.20;;
27223;SDS011;14965;50.660;13.226;2023-12-29T09:23:09;4.50;;;2.10;;
27223;SDS011;14965;50.660;13.226;2023-12-29T09:25:35;5.03;;;1.90;;
27223;SDS011;14965;50.660;13.226;2023-12-29T09:28:02;5.03;;;2.30;;
27223;SDS011;14965;50.660;13.226;2023-12-29T09:30:30;4.97;;;2.30;;
27223;SDS011;14965;50.660;13.226;2023-12-29T09:32:56;4.15;;;2.25;;
27223;SDS011;14965;50.660;13.226;2023-12-29T09:35:22;4.72;;;2.20;;
27223;SDS011;14965;50.660;13.226;2023-12-29T09:37:49;4.05;;;2.35;;
27223;SDS011;14965;50.660;13.226;2023-12-29T09:40:15;3.38;;;2.28;;
27223;SDS011;14965;50.660;13.226;2023-12-29T09:42:42;5.07;;;2.30;;
27223;SDS011;14965;50.660;13.226;2023-12-29T09:45:10;5.47;;;2.30;;
27223;SDS011;14965;50.660;13.226;2023-12-29T09:47:40;4.75;;;2.50;;
27223;SDS011;14965;50.660;13.226;2023-12-29T09:50:09;3.22;;;2.20;;
27223;SDS011;14965;50.660;13.226;2023-12-29T09:52:37;4.03;;;2.40;;
27223;SDS011;14965;50.660;13.226;2023-12-29T09:55:05;4.82;;;2.47;;
27223;SDS011;14965;50.660;13.226;2023-12-29T09:57:35;4.47;;;2.47;;
27223;SDS011;14965;50.660;13.226;2023-12-29T10:00:02;4.43;;;2.35;;
27223;SDS011;14965;50.660;13.226;2023-12-29T10:02:29;5.25;;;2.38;;
27223;SDS011;14965;50.660;13.226;2023-12-29T10:04:59;4.85;;;2.28;;
27223;SDS011;14965;50.660;13.226;2023-12-29T10:07:29;4.30;;;2.00;;
27223;SDS011;14965;50.660;13.226;2023-12-29T10:10:00;3.50;;;2.30;;
27223;SDS011;14965;50.660;13.226;2023-12-29T10:12:29;2.47;;;1.98;;
27223;SDS011;14965;50.660;13.226;2023-12-29T10:14:57;5.72;;;2.03;;
27223;SDS011;14965;50.660;13.226;2023-12-29T10:17:33;5.10;;;2.28;;
27223;SDS011;14965;50.660;13.226;2023-12-29T10:20:15;3.38;;;1.70;;
27223;SDS011;14965;50.660;13.226;2023-12-29T10:22:51;3.42;;;2.03;;
27223;SDS011;14965;50.660;13.226;2023-12-29T10:27:56;4.88;;;2.15;;
27223;SDS011;14965;50.660;13.226;2023-12-29T10:30:23;5.55;;;2.22;;
27223;SDS011;14965;50.660;13.226;2023-12-29T10:32:49;5.55;;;2.50;;
27223;SDS011;14965;50.660;13.226;2023-12-29T10:35:18;6.45;;;2.60;;
27223;SDS011;14965;50.660;13.226;2023-12-29T10:37:45;6.35;;;2.25;;
27223;SDS011;14965;50.660;13.226;2023-12-29T10:40:16;7.13;;;3.40;;
27223;SDS011;14965;50.660;13.226;2023-12-29T10:42:51;5.10;;;2.70;;
27223;SDS011;14965;50.660;13.226;2023-12-29T10:45:18;6.00;;;2.55;;
27223;SDS011;14965;50.660;13.226;2023-12-29T10:47:44;6.28;;;2.63;;
27223;SDS011;14965;50.660;13.226;2023-12-29T10:50:11;4.82;;;2.10;;
27223;SDS011;14965;50.660;13.226;2023-12-29T10:52:39;3.00;;;1.85;;
27223;SDS011;14965;50.660;13.226;2023-12-29T10:55:08;3.90;;;2.03;;
27223;SDS011;14965;50.660;13.226;2023-12-29T10:57:36;3.72;;;1.95;;
27223;SDS011;14965;50.660;13.226;2023-12-29T11:00:04;4.35;;;2.15;;
27223;SDS011;14965;50.660;13.226;2023-12-29T11:02:33;6.60;;;2.30;;
27223;SDS011;14965;50.660;13.226;2023-12-29T11:05:03;3.85;;;1.90;;
27223;SDS011;14965;50.660;13.226;2023-12-29T11:07:32;3.05;;;1.88;;
27223;SDS011;14965;50.660;13.226;2023-12-29T11:10:05;2.67;;;1.75;;
27223;SDS011;14965;50.660;13.226;2023-12-29T11:12:33;3.00;;;1.73;;
27223;SDS011;14965;50.660;13.226;2023-12-29T11:15:01;4.87;;;1.80;;
27223;SDS011;14965;50.660;13.226;2023-12-29T11:17:30;2.47;;;1.75;;
27223;SDS011;14965;50.660;13.226;2023-12-29T11:19:59;5.55;;;2.00;;
27223;SDS011;14965;50.660;13.226;2023-12-29T11:22:27;4.30;;;2.20;;
27223;SDS011;14965;50.660;13.226;2023-12-29T11:24:57;4.63;;;2.35;;
27223;SDS011;14965;50.660;13.226;2023-12-29T11:27:24;3.53;;;2.10;;
27223;SDS011;14965;50.660;13.226;2023-12-29T11:29:54;3.72;;;1.92;;
27223;SDS011;14965;50.660;13.226;2023-12-29T11:32:22;3.00;;;1.58;;
27223;SDS011;14965;50.660;13.226;2023-12-29T11:34:59;12.55;;;5.10;;
27223;SDS011;14965;50.660;13.226;2023-12-29T11:37:43;3.33;;;1.67;;
27223;SDS011;14965;50.660;13.226;2023-12-29T11:40:41;3.53;;;1.70;;
27223;SDS011;14965;50.660;13.226;2023-12-29T11:43:14;3.42;;;1.52;;
27223;SDS011;14965;50.660;13.226;2023-12-29T11:45:43;3.38;;;1.70;;
27223;SDS011;14965;50.660;13.226;2023-12-29T11:48:09;6.47;;;1.80;;
27223;SDS011;14965;50.660;13.226;2023-12-29T11:50:36;2.00;;;1.33;;
27223;SDS011;14965;50.660;13.226;2023-12-29T11:53:04;2.33;;;1.40;;
27223;SDS011;14965;50.660;13.226;2023-12-29T11:55:31;3.75;;;1.35;;
27223;SDS011;14965;50.660;13.226;2023-12-29T11:58:02;1.40;;;1.25;;
27223;SDS011;14965;50.660;13.226;2023-12-29T12:00:42;2.28;;;1.40;;
27223;SDS011;14965;50.660;13.226;2023-12-29T12:03:13;2.72;;;1.38;;
27223;SDS011;14965;50.660;13.226;2023-12-29T12:05:45;2.35;;;1.40;;
27223;SDS011;14965;50.660;13.226;2023-12-29T12:08:26;4.60;;;1.60;;
27223;SDS011;14965;50.660;13.226;2023-12-29T12:10:54;2.67;;;1.70;;
27223;SDS011;14965;50.660;13.226;2023-12-29T12:19:16;1.95;;;1.52;;
27223;SDS011;14965;50.660;13.226;2023-12-29T12:21:43;3.13;;;1.67;;
27223;SDS011;14965;50.660;13.226;2023-12-29T12:24:12;2.33;;;1.60;;
27223;SDS011;14965;50.660;13.226;2023-12-29T12:26:38;4.45;;;1.95;;
27223;SDS011;14965;50.660;13.226;2023-12-29T12:29:07;4.18;;;1.83;;
27223;SDS011;14965;50.660;13.226;2023-12-29T12:31:34;4.83;;;1.73;;
27223;SDS011;14965;50.660;13.226;2023-12-29T12:34:00;3.35;;;1.58;;
27223;SDS011;14965;50.660;13.226;2023-12-29T12:36:27;2.40;;;1.70;;
27223;SDS011;14965;50.660;13.226;2023-12-29T12:38:53;3.42;;;1.70;;
27223;SDS011;14965;50.660;13.226;2023-12-29T12:41:21;2.67;;;1.70;;
27223;SDS011;14965;50.660;13.226;2023-12-29T12:43:50;3.80;;;1.77;;
27223;SDS011;14965;50.660;13.226;2023-12-29T12:46:34;3.17;;;1.73;;
27223;SDS011;14965;50.660;13.226;2023-12-29T12:49:06;5.30;;;1.70;;
27223;SDS011;14965;50.660;13.226;2023-12-29T12:51:33;3.25;;;1.48;;
27223;SDS011;14965;50.660;13.226;2023-12-29T12:54:00;3.33;;;1.65;;
27223;SDS011;14965;50.660;13.226;2023-12-29T12:56:27;4.03;;;1.70;;
27223;SDS011;14965;50.660;13.226;2023-12-29T12:58:54;4.00;;;1.80;;
27223;SDS011;14965;50.660;13.226;2023-12-29T13:01:22;3.75;;;1.65;;
27223;SDS011;14965;50.660;13.226;2023-12-29T13:03:50;1.75;;;1.33;;
27223;SDS011;14965;50.660;13.226;2023-12-29T13:06:17;4.55;;;1.77;;
27223;SDS011;14965;50.660;13.226;2023-12-29T13:08:43;4.10;;;1.52;;
27223;SDS011;14965;50.660;13.226;2023-12-29T13:11:10;3.28;;;1.30;;
27223;SDS011;14965;50.660;13.226;2023-12-29T13:13:37;1.60;;;1.33;;
27223;SDS011;14965;50.660;13.226;2023-12-29T13:16:04;2.60;;;1.40;;
27223;SDS011;14965;50.660;13.226;2023-12-29T13:18:31;3.25;;;1.60;;
27223;SDS011;14965;50.660;13.226;2023-12-29T13:20:59;3.47;;;1.58;;
27223;SDS011;14965;50.660;13.226;2023-12-29T13:23:27;4.60;;;1.85;;
27223;SDS011;14965;50.660;13.226;2023-12-29T13:25:54;4.85;;;1.40;;
27223;SDS011;14965;50.660;13.226;2023-12-29T13:28:22;3.13;;;1.42;;
27223;SDS011;14965;50.660;13.226;2023-12-29T13:30:50;3.53;;;1.30;;
27223;SDS011;14965;50.660;13.226;2023-12-29T13:33:18;4.13;;;1.30;;
27223;SDS011;14965;50.660;13.226;2023-12-29T13:36:06;1.75;;;1.20;;
27223;SDS011;14965;50.660;13.226;2023-12-29T13:38:49;2.17;;;1.08;;
27223;SDS011;14965;50.660;13.226;2023-12-29T13:41:23;2.25;;;1.58;;
27223;SDS011;14965;50.660;13.226;2023-12-29T13:43:52;1.65;;;1.02;;
27223;SDS011;14965;50.660;13.226;2023-12-29T13:46:21;3.65;;;1.13;;
27223;SDS011;14965;50.660;13.226;2023-12-29T13:48:48;1.88;;;1.10;;
27223;SDS011;14965;50.660;13.226;2023-12-29T13:51:15;1.60;;;1.08;;
27223;SDS011;14965;50.660;13.226;2023-12-29T13:53:41;2.15;;;1.30;;
27223;SDS011;14965;50.660;13.226;2023-12-29T13:56:08;5.88;;;1.58;;
27223;SDS011;14965;50.660;13.226;2023-12-29T13:58:35;2.25;;;1.15;;
27223;SDS011;14965;50.660;13.226;2023-12-29T14:01:03;2.40;;;1.40;;
27223;SDS011;14965;50.660;13.226;2023-12-29T14:03:39;1.75;;;1.10;;
27223;SDS011;14965;50.660;13.226;2023-12-29T14:06:12;3.10;;;1.38;;
27223;SDS011;14965;50.660;13.226;2023-12-29T14:08:52;3.05;;;1.90;;
27223;SDS011;14965;50.660;13.226;2023-12-29T14:11:18;2.55;;;1.50;;
27223;SDS011;14965;50.660;13.226;2023-12-29T14:13:44;3.63;;;1.65;;
27223;SDS011;14965;50.660;13.226;2023-12-29T14:16:11;4.10;;;1.63;;
27223;SDS011;14965;50.660;13.226;2023-12-29T14:18:45;2.83;;;1.65;;
27223;SDS011;14965;50.660;13.226;2023-12-29T14:21:23;3.53;;;2.15;;
27223;SDS011;14965;50.660;13.226;2023-12-29T14:23:57;2.85;;;1.60;;
27223;SDS011;14965;50.660;13.226;2023-12-29T14:26:25;4.30;;;2.00;;
27223;SDS011;14965;50.660;13.226;2023-12-29T14:28:59;2.30;;;1.40;;
27223;SDS011;14965;50.660;13.226;2023-12-29T14:31:26;1.77;;;1.13;;
27223;SDS011;14965;50.660;13.226;2023-12-29T14:33:53;3.20;;;1.40;;
27223;SDS011;14965;50.660;13.226;2023-12-29T14:36:19;2.50;;;1.30;;
27223;SDS011;14965;50.660;13.226;2023-12-29T14:38:46;3.65;;;1.35;;
27223;SDS011;14965;50.660;13.226;2023-12-29T14:41:13;3.40;;;1.80;;
27223;SDS011;14965;50.660;13.226;2023-12-29T14:43:39;4.07;;;2.75;;